Time;durP1;ratioP1;P1;durP2;ratioP2;P2;SDS_P1;SDS_P2;PMS_P1;PMS_P2;Temp;Humidity;BMP_temperature;BMP_pressure;BME280_temperature;BME280_humidity;BME280_pressure;Samples;Min_cycle;Max_cycle;Signal;HPM_P1;HPM_P2
2021/04/08 00:01:32;;;;;;;;;;;;;;;3.51;86.04;101257.88;1776284;80;20128;-78
2021/04/08 00:04:00;;;;;;;;;;;;;;;3.52;86.41;101252.69;1778478;80;20214;-77
2021/04/08 00:06:27;;;;;;;;;;;;;;;3.51;86.49;101243.30;1779875;81;21187;-78
2021/04/08 00:08:57;;;;;;;;;;;;;;;3.49;86.74;101249.37;1779570;80;20191;-79
2021/04/08 00:11:24;;;;;;;;;;;;;;;3.45;87.00;101264.44;1779569;80;20128;-81
2021/04/08 00:13:52;;;;;;;;;;;;;;;3.42;87.71;101265.80;1779530;81;20116;-76
2021/04/08 00:16:20;;;;;;;;;;;;;;;3.39;87.90;101280.00;1779206;81;20194;-79
2021/04/08 00:18:48;;;;;;;;;;;;;;;3.35;88.24;101286.93;1779027;80;21263;-77
2021/04/08 00:21:17;;;;;;;;;;;;;;;3.32;88.56;101284.45;1779325;80;20144;-80
2021/04/08 00:23:45;;;;;;;;;;;;;;;3.27;88.70;101287.59;1779644;80;20199;-80
2021/04/08 00:26:12;;;;;;;;;;;;;;;3.20;89.05;101286.91;1777375;80;20203;-79
2021/04/08 00:28:40;;;;;;;;;;;;;;;3.14;89.45;101286.22;1775907;80;20251;-77
2021/04/08 00:31:07;;;;;;;;;;;;;;;3.09;90.07;101281.22;1775701;81;22093;-73
2021/04/08 00:33:36;;;;;;;;;;;;;;;3.06;90.47;101288.14;1775717;81;20187;-78
2021/04/08 00:36:04;;;;;;;;;;;;;;;3.07;90.92;101298.78;1776130;81;20234;-79
2021/04/08 00:38:32;;;;;;;;;;;;;;;3.08;91.24;101292.34;1775667;81;20239;-74
2021/04/08 00:41:01;;;;;;;;;;;;;;;3.10;91.76;101296.98;1775836;81;20282;-79
2021/04/08 00:43:30;;;;;;;;;;;;;;;3.13;91.78;101312.30;1775755;80;21172;-79
2021/04/08 00:45:57;;;;;;;;;;;;;;;3.14;91.82;101308.86;1768181;81;20149;-78
2021/04/08 00:48:26;;;;;;;;;;;;;;;3.16;91.79;101316.06;1769158;81;20310;-77
2021/04/08 00:50:55;;;;;;;;;;;;;;;3.19;92.06;101323.67;1768598;81;20219;-76
2021/04/08 00:53:24;;;;;;;;;;;;;;;3.20;92.11;101323.24;1769775;81;20219;-81
2021/04/08 00:55:52;;;;;;;;;;;;;;;3.20;91.92;101331.78;1768388;81;22143;-80
2021/04/08 00:58:20;;;;;;;;;;;;;;;3.17;91.93;101334.86;1768605;81;20128;-80
2021/04/08 01:00:48;;;;;;;;;;;;;;;3.13;92.31;101334.09;1768019;81;20223;-78
2021/04/08 01:03:18;;;;;;;;;;;;;;;3.13;92.44;101328.96;1768559;81;20350;-80
2021/04/08 01:05:46;;;;;;;;;;;;;;;3.11;92.38;101335.02;1768772;81;20182;-77
2021/04/08 01:08:14;;;;;;;;;;;;;;;3.10;92.69;101336.73;1767977;81;22222;-78
2021/04/08 01:10:44;;;;;;;;;;;;;;;3.08;92.62;101340.22;1767664;81;20216;-80
2021/04/08 01:13:14;;;;;;;;;;;;;;;3.03;92.69;101348.47;1767798;81;20112;-81
2021/04/08 01:15:43;;;;;;;;;;;;;;;2.99;92.96;101360.95;1768016;81;20232;-79
2021/04/08 01:18:31;;;;;;;;;;;;;;;2.97;93.37;101362.69;1767753;81;20183;-80
2021/04/08 01:21:31;;;;;;;;;;;;;;;2.96;93.50;101358.03;1767861;81;21195;-79
2021/04/08 01:24:40;;;;;;;;;;;;;;;2.91;93.46;101356.00;1767706;81;20132;-79
2021/04/08 01:27:29;;;;;;;;;;;;;;;2.86;93.74;101360.84;1767425;81;20160;-79
2021/04/08 01:30:19;;;;;;;;;;;;;;;2.80;94.12;101357.14;1767683;81;20294;-78
2021/04/08 01:32:51;;;;;;;;;;;;;;;2.78;94.43;101357.16;1747597;81;20271;-79
2021/04/08 01:35:24;;;;;;;;;;;;;;;2.78;94.78;101352.03;1768405;81;21126;-79
2021/04/08 01:38:19;;;;;;;;;;;;;;;2.79;95.09;101342.63;1768072;81;20499;-78
2021/04/08 01:40:49;;;;;;;;;;;;;;;2.82;95.51;101326.73;1768714;81;20557;-79
2021/04/08 01:43:19;;;;;;;;;;;;;;;2.85;95.62;101322.82;1750404;81;20498;-79
2021/04/08 01:45:48;;;;;;;;;;;;;;;2.87;95.69;101328.74;1775161;80;20222;-79
2021/04/08 01:48:16;;;;;;;;;;;;;;;2.88;95.64;101324.03;1776269;81;21230;-77
2021/04/08 01:50:43;;;;;;;;;;;;;;;2.89;95.51;101333.84;1777089;80;20136;-78
2021/04/08 01:53:14;;;;;;;;;;;;;;;2.91;95.36;101344.89;1776832;80;20199;-79
2021/04/08 01:55:42;;;;;;;;;;;;;;;2.92;95.27;101352.56;1776035;81;20219;-79
2021/04/08 01:58:11;;;;;;;;;;;;;;;2.96;94.96;101366.16;1775656;81;20687;-78
2021/04/08 02:00:39;;;;;;;;;;;;;;;2.99;94.70;101360.95;1776192;81;21229;-78
2021/04/08 02:03:07;;;;;;;;;;;;;;;3.02;94.41;101371.98;1776021;81;20148;-80
2021/04/08 02:05:35;;;;;;;;;;;;;;;3.05;94.01;101373.19;1775780;80;20151;-79
2021/04/08 02:08:03;;;;;;;;;;;;;;;3.07;93.59;101379.55;1775908;80;20750;-79
2021/04/08 02:10:31;;;;;;;;;;;;;;;3.03;93.21;101377.49;1775586;80;20258;-79
2021/04/08 02:12:58;;;;;;;;;;;;;;;3.01;93.02;101378.41;1748497;81;21190;-79
2021/04/08 02:15:26;;;;;;;;;;;;;;;2.99;92.87;101381.47;1775422;80;20175;-78
2021/04/08 02:17:55;;;;;;;;;;;;;;;2.99;92.83;101380.19;1775638;81;20128;-75
2021/04/08 02:20:26;;;;;;;;;;;;;;;3.00;92.78;101381.41;1775663;81;20131;-78
2021/04/08 02:22:55;;;;;;;;;;;;;;;3.01;92.72;101380.55;1775300;81;20265;-78
2021/04/08 02:25:25;;;;;;;;;;;;;;;3.03;92.71;101378.77;1775645;81;21199;-81
2021/04/08 02:27:53;;;;;;;;;;;;;;;3.05;92.68;101377.47;1748064;81;20168;-77
2021/04/08 02:30:21;;;;;;;;;;;;;;;3.04;92.71;101371.50;1776625;81;20502;-79
2021/04/08 02:32:49;;;;;;;;;;;;;;;3.06;92.67;101374.04;1776449;80;20781;-76
2021/04/08 02:35:17;;;;;;;;;;;;;;;3.06;92.60;101376.61;1776119;81;20521;-78
2021/04/08 02:37:45;;;;;;;;;;;;;;;3.07;92.68;101368.02;1776732;80;21187;-77
2021/04/08 02:40:16;;;;;;;;;;;;;;;3.07;92.64;101362.45;1775809;81;20223;-75
2021/04/08 02:42:44;;;;;;;;;;;;;;;3.08;92.68;101372.27;1776243;80;20155;-76
2021/04/08 02:45:14;;;;;;;;;;;;;;;3.08;92.60;101377.40;1775860;80;20302;-79
2021/04/08 02:47:43;;;;;;;;;;;;;;;3.06;92.53;101377.42;1775576;80;20251;-80
2021/04/08 02:50:13;;;;;;;;;;;;;;;3.02;92.47;101374.98;1775476;80;21186;-77
2021/04/08 02:53:18;;;;;;;;;;;;;;;2.98;92.56;101380.62;1775474;80;20112;-78
2021/04/08 02:55:48;;;;;;;;;;;;;;;2.96;92.66;101393.92;1775772;80;20135;-78
2021/04/08 02:58:18;;;;;;;;;;;;;;;2.96;92.84;101402.05;1776445;80;20187;-79
2021/04/08 03:00:57;;;;;;;;;;;;;;;2.97;93.00;101406.27;1777712;80;20105;-79
2021/04/08 03:03:37;;;;;;;;;;;;;;;2.98;93.04;101414.38;1775652;80;21185;-79
2021/04/08 03:06:06;;;;;;;;;;;;;;;2.98;93.08;101425.92;1776737;80;20112;-78
2021/04/08 03:08:35;;;;;;;;;;;;;;;2.94;92.94;101435.83;1776296;81;20715;-79
2021/04/08 03:11:04;;;;;;;;;;;;;;;2.91;93.02;101438.03;1776030;81;20232;-79
2021/04/08 03:13:34;;;;;;;;;;;;;;;2.89;92.96;101441.51;1776026;81;20228;-76
2021/04/08 03:16:04;;;;;;;;;;;;;;;2.84;92.97;101442.06;1775808;80;21196;-76
2021/04/08 03:18:31;;;;;;;;;;;;;;;2.84;93.23;101430.53;1775912;80;20112;-80
2021/04/08 03:20:59;;;;;;;;;;;;;;;2.87;93.31;101435.59;1775962;80;20298;-76
2021/04/08 03:23:27;;;;;;;;;;;;;;;2.90;93.35;101434.23;1775681;81;20942;-77
2021/04/08 03:25:55;;;;;;;;;;;;;;;2.94;93.28;101439.23;1776061;80;20247;-79
2021/04/08 03:28:23;;;;;;;;;;;;;;;2.96;93.12;101438.79;1775973;80;21757;-79
2021/04/08 03:30:51;;;;;;;;;;;;;;;2.98;92.93;101442.58;1775563;81;20246;-78
2021/04/08 03:33:22;;;;;;;;;;;;;;;2.98;92.71;101445.14;1776299;80;20139;-79
2021/04/08 03:35:50;;;;;;;;;;;;;;;2.95;92.51;101449.06;1775625;81;20151;-80
2021/04/08 03:38:18;;;;;;;;;;;;;;;2.91;92.40;101443.16;1775829;81;20131;-80
2021/04/08 03:40:46;;;;;;;;;;;;;;;2.91;92.36;101446.16;1775836;80;21183;-80
2021/04/08 03:43:14;;;;;;;;;;;;;;;2.88;92.34;101437.25;1775662;81;20175;-78
2021/04/08 03:45:42;;;;;;;;;;;;;;;2.87;92.34;101441.53;1777059;80;20247;-80
2021/04/08 03:48:13;;;;;;;;;;;;;;;2.88;92.34;101439.81;1776252;80;20151;-79
2021/04/08 03:50:42;;;;;;;;;;;;;;;2.86;92.31;101438.58;1776327;81;20525;-79
2021/04/08 03:53:10;;;;;;;;;;;;;;;2.85;92.32;101435.60;1775912;81;21229;-79
2021/04/08 03:55:38;;;;;;;;;;;;;;;2.85;92.27;101434.76;1775534;81;20148;-73
2021/04/08 03:58:06;;;;;;;;;;;;;;;2.85;92.20;101440.73;1747946;81;20524;-75
2021/04/08 04:00:34;;;;;;;;;;;;;;;2.83;92.02;101439.94;1775793;80;21005;-76
2021/04/08 04:03:02;;;;;;;;;;;;;;;2.81;92.04;101437.00;1775518;81;20214;-77
2021/04/08 04:05:30;;;;;;;;;;;;;;;2.81;92.11;101431.88;1775647;80;22124;-78
2021/04/08 04:08:00;;;;;;;;;;;;;;;2.83;92.08;101437.80;1775638;80;20503;-78
2021/04/08 04:10:28;;;;;;;;;;;;;;;2.84;92.05;101438.22;1748443;81;20204;-73
2021/04/08 04:12:56;;;;;;;;;;;;;;;2.85;91.98;101440.73;1775472;81;20325;-78
2021/04/08 04:15:24;;;;;;;;;;;;;;;2.87;91.85;101444.56;1775998;80;20269;-78
2021/04/08 04:17:52;;;;;;;;;;;;;;;2.90;91.80;101450.47;1775976;80;22103;-75
2021/04/08 04:20:20;;;;;;;;;;;;;;;2.91;91.76;101444.88;1775522;80;20739;-74
2021/04/08 04:22:47;;;;;;;;;;;;;;;2.97;91.85;101440.88;1775057;80;20247;-72
2021/04/08 04:25:15;;;;;;;;;;;;;;;3.00;91.75;101435.25;1775357;80;20855;-73
2021/04/08 04:27:43;;;;;;;;;;;;;;;3.07;91.54;101432.96;1775503;80;20219;-74
2021/04/08 04:30:12;;;;;;;;;;;;;;;3.13;91.25;101431.97;1775404;80;21187;-76
2021/04/08 04:32:40;;;;;;;;;;;;;;;3.18;91.04;101430.16;1775483;81;20155;-76
2021/04/08 04:35:08;;;;;;;;;;;;;;;3.20;90.93;101421.55;1775598;81;20500;-74
2021/04/08 04:37:36;;;;;;;;;;;;;;;3.22;90.81;101416.39;1775404;81;20318;-75
2021/04/08 04:40:05;;;;;;;;;;;;;;;3.19;90.71;101415.19;1775568;80;20477;-77
2021/04/08 04:42:34;;;;;;;;;;;;;;;3.14;90.68;101421.69;1775651;81;21192;-73
2021/04/08 04:45:04;;;;;;;;;;;;;;;3.10;90.89;101420.07;1775476;80;20112;-76
2021/04/08 04:47:35;;;;;;;;;;;;;;;3.09;91.05;101413.28;1775450;80;20219;-77
2021/04/08 04:50:05;;;;;;;;;;;;;;;3.08;91.25;101429.53;1775570;81;20175;-81
2021/04/08 04:52:32;;;;;;;;;;;;;;;3.10;91.33;101444.86;1775508;80;20234;-78
2021/04/08 04:55:00;;;;;;;;;;;;;;;3.11;91.40;101451.25;1775910;81;22103;-79
2021/04/08 04:57:28;;;;;;;;;;;;;;;3.15;91.38;101445.62;1775911;81;20249;-77
2021/04/08 04:59:56;;;;;;;;;;;;;;;3.19;91.30;101435.70;1776247;81;20167;-77
2021/04/08 05:02:24;;;;;;;;;;;;;;;3.25;91.20;101468.05;1775810;81;20152;-79
2021/04/08 05:04:52;;;;;;;;;;;;;;;3.29;91.01;101492.77;1775987;81;20214;-78
2021/04/08 05:07:19;;;;;;;;;;;;;;;3.36;90.84;101484.02;1776746;80;22151;-76
2021/04/08 05:09:48;;;;;;;;;;;;;;;3.41;90.65;101480.49;1775649;81;20496;-78
2021/04/08 05:12:17;;;;;;;;;;;;;;;3.50;90.29;101476.85;1776440;80;20136;-80
2021/04/08 05:14:45;;;;;;;;;;;;;;;3.58;90.02;101473.65;1776029;80;20239;-77
2021/04/08 05:17:13;;;;;;;;;;;;;;;3.67;89.75;101479.84;1775453;81;20291;-75
2021/04/08 05:19:42;;;;;;;;;;;;;;;3.72;89.41;101497.27;1775457;80;21146;-76
2021/04/08 05:22:10;;;;;;;;;;;;;;;3.77;89.13;101500.98;1776092;80;20136;-80
2021/04/08 05:24:37;;;;;;;;;;;;;;;3.81;89.05;101485.48;1777279;80;20127;-80
2021/04/08 05:27:06;;;;;;;;;;;;;;;3.87;89.15;101486.61;1776681;81;20182;-78
2021/04/08 05:29:34;;;;;;;;;;;;;;;3.95;89.03;101491.13;1775884;80;20518;-78
2021/04/08 05:32:02;;;;;;;;;;;;;;;4.00;88.54;101498.26;1775424;80;21123;-77
2021/04/08 05:34:30;;;;;;;;;;;;;;;4.05;88.17;101509.71;1776566;80;20525;-78
2021/04/08 05:36:58;;;;;;;;;;;;;;;4.08;88.04;101518.19;1775842;80;20239;-76
2021/04/08 05:39:26;;;;;;;;;;;;;;;4.13;87.61;101522.75;1775906;80;20222;-74
2021/04/08 05:41:54;;;;;;;;;;;;;;;4.17;86.40;101521.80;1776131;80;20575;-80
2021/04/08 05:44:22;;;;;;;;;;;;;;;4.19;85.90;101511.02;1777324;80;21260;-76
2021/04/08 05:46:49;;;;;;;;;;;;;;;4.26;86.00;101495.86;1775688;81;20517;-77
2021/04/08 05:49:18;;;;;;;;;;;;;;;4.34;85.52;101494.34;1775269;80;20223;-75
2021/04/08 05:51:46;;;;;;;;;;;;;;;4.42;85.19;101493.72;1775167;81;20279;-74
2021/04/08 05:54:13;;;;;;;;;;;;;;;4.43;84.50;101489.42;1777377;80;20120;-81
2021/04/08 05:56:41;;;;;;;;;;;;;;;4.43;85.02;101488.98;1776323;80;21189;-79
2021/04/08 05:59:10;;;;;;;;;;;;;;;4.49;85.40;101496.95;1775159;80;20239;-77
2021/04/08 06:01:42;;;;;;;;;;;;;;;4.54;84.71;101495.09;1775100;80;20279;-73
2021/04/08 06:04:10;;;;;;;;;;;;;;;4.58;84.08;101505.70;1774701;80;20943;-77
2021/04/08 06:06:38;;;;;;;;;;;;;;;4.60;82.59;101508.61;1728720;80;20235;-78
2021/04/08 06:09:06;;;;;;;;;;;;;;;4.69;82.89;101518.64;1719419;81;21159;-78
2021/04/08 06:11:34;;;;;;;;;;;;;;;4.77;82.19;101521.84;1741653;81;20201;-76
2021/04/08 06:14:04;;;;;;;;;;;;;;;4.78;79.57;101521.41;1741321;81;20241;-75
2021/04/08 06:16:31;;;;;;;;;;;;;;;4.79;79.73;101529.50;1715957;81;20311;-74
2021/04/08 06:19:02;;;;;;;;;;;;;;;4.86;79.40;101530.17;1712353;83;20148;-75
2021/04/08 06:21:32;;;;;;;;;;;;;;;4.93;79.29;101537.68;1709867;82;21204;-79
2021/04/08 06:24:01;;;;;;;;;;;;;;;5.05;80.00;101538.61;1722359;81;20214;-74
2021/04/08 06:26:29;;;;;;;;;;;;;;;5.16;79.04;101534.00;1732161;83;20284;-73
2021/04/08 06:28:58;;;;;;;;;;;;;;;5.23;78.37;101531.62;1731464;81;20288;-75
2021/04/08 06:31:28;;;;;;;;;;;;;;;5.24;77.38;101536.33;1729429;82;20293;-80
2021/04/08 06:33:57;;;;;;;;;;;;;;;5.24;76.95;101544.89;1732399;83;21405;-75
2021/04/08 06:36:25;;;;;;;;;;;;;;;5.30;76.89;101545.14;1724198;82;20724;-78
2021/04/08 06:38:53;;;;;;;;;;;;;;;5.36;76.32;101544.95;1719129;82;20654;-75
2021/04/08 06:41:23;;;;;;;;;;;;;;;5.45;74.82;101546.42;1719321;83;20241;-76
2021/04/08 06:43:52;;;;;;;;;;;;;;;5.50;74.73;101542.81;1719518;82;20582;-75
2021/04/08 06:46:21;;;;;;;;;;;;;;;5.55;74.55;101535.77;1720097;82;22392;-78
2021/04/08 06:49:10;;;;;;;;;;;;;;;5.62;74.04;101539.00;1735897;81;20232;-80
2021/04/08 06:51:39;;;;;;;;;;;;;;;5.66;74.25;101533.72;1720549;83;20245;-77
2021/04/08 06:54:10;;;;;;;;;;;;;;;5.68;73.55;101531.11;1720992;82;20202;-79
2021/04/08 06:56:39;;;;;;;;;;;;;;;5.68;73.21;101545.27;1734305;82;20277;-82
2021/04/08 06:59:07;;;;;;;;;;;;;;;5.72;73.39;101545.11;1719549;83;21155;-78
2021/04/08 07:01:37;;;;;;;;;;;;;;;5.75;72.36;101533.42;1719685;82;20579;-78
2021/04/08 07:04:06;;;;;;;;;;;;;;;5.76;71.48;101536.84;1720481;82;20157;-79
2021/04/08 07:06:35;;;;;;;;;;;;;;;5.78;70.84;101538.91;1720531;82;21102;-79
2021/04/08 07:09:08;;;;;;;;;;;;;;;5.88;70.89;101546.77;1719484;82;20328;-77
2021/04/08 07:11:38;;;;;;;;;;;;;;;5.98;67.65;101550.73;1720067;83;20177;-79
2021/04/08 07:14:09;;;;;;;;;;;;;;;6.04;66.89;101558.27;1719997;83;20614;-75
2021/04/08 07:16:37;;;;;;;;;;;;;;;6.16;66.41;101573.31;1720021;82;20285;-79
2021/04/08 07:19:06;;;;;;;;;;;;;;;6.27;66.02;101573.81;1720372;83;20317;-79
2021/04/08 07:21:35;;;;;;;;;;;;;;;6.44;65.57;101585.29;1720288;82;20575;-79
2021/04/08 07:24:11;;;;;;;;;;;;;;;6.62;65.88;101600.97;1719685;83;21383;-78
2021/04/08 07:26:57;;;;;;;;;;;;;;;6.79;64.87;101606.83;1720681;83;20308;-82
2021/04/08 07:29:43;;;;;;;;;;;;;;;6.92;64.50;101606.79;1719665;82;20273;-78
2021/04/08 07:32:17;;;;;;;;;;;;;;;7.13;62.96;101612.45;1721125;82;20868;-77
2021/04/08 07:34:50;;;;;;;;;;;;;;;7.31;61.38;101609.63;1719718;82;20265;-78
2021/04/08 07:37:22;;;;;;;;;;;;;;;7.42;59.04;101616.09;1719638;82;21474;-80
2021/04/08 07:39:50;;;;;;;;;;;;;;;7.56;58.10;101627.64;1719705;82;20329;-81
2021/04/08 07:42:21;;;;;;;;;;;;;;;7.67;57.87;101625.03;1719800;82;20273;-80
2021/04/08 07:44:51;;;;;;;;;;;;;;;7.87;57.73;101632.01;1718934;82;20754;-80
2021/04/08 07:47:23;;;;;;;;;;;;;;;7.97;53.35;101629.02;1720168;82;20344;-81
2021/04/08 07:50:10;;;;;;;;;;;;;;;8.08;53.57;101634.17;1721565;82;21607;-76
2021/04/08 07:52:39;;;;;;;;;;;;;;;8.19;52.16;101630.72;1721309;82;20306;-77
2021/04/08 07:55:18;;;;;;;;;;;;;;;8.18;50.25;101638.92;1721780;82;20273;-77
2021/04/08 07:58:06;;;;;;;;;;;;;;;8.11;49.70;101632.31;1727978;82;20342;-77
2021/04/08 08:00:44;;;;;;;;;;;;;;;8.16;49.60;101643.77;1721875;83;20293;-77
2021/04/08 08:03:29;;;;;;;;;;;;;;;8.20;47.42;101646.16;1721898;82;21369;-75
2021/04/08 08:05:59;;;;;;;;;;;;;;;8.17;47.84;101646.76;1721348;82;20237;-79
2021/04/08 08:08:38;;;;;;;;;;;;;;;8.17;47.84;101649.34;1702156;83;20284;-78
2021/04/08 08:11:10;;;;;;;;;;;;;;;8.28;47.91;101651.06;1721603;82;20304;-75
2021/04/08 08:13:52;;;;;;;;;;;;;;;8.36;48.31;101649.02;1722021;82;20209;-73
2021/04/08 08:16:27;;;;;;;;;;;;;;;8.39;47.76;101648.89;1722004;82;21203;-79
2021/04/08 08:19:01;;;;;;;;;;;;;;;8.42;49.27;101646.17;1721456;82;20193;-77
2021/04/08 08:21:39;;;;;;;;;;;;;;;8.56;49.10;101646.42;1722638;82;20173;-77
2021/04/08 08:24:10;;;;;;;;;;;;;;;8.68;46.46;101652.37;1722445;83;20330;-76
2021/04/08 08:26:41;;;;;;;;;;;;;;;8.76;45.92;101650.31;1721274;82;20265;-75
2021/04/08 08:29:13;;;;;;;;;;;;;;;8.78;45.19;101655.41;1721967;82;21291;-74
2021/04/08 08:31:59;;;;;;;;;;;;;;;8.69;45.62;101651.47;1722216;83;20496;-80
2021/04/08 08:34:37;;;;;;;;;;;;;;;8.67;45.66;101652.45;1701743;83;20294;-79
2021/04/08 08:37:15;;;;;;;;;;;;;;;8.69;45.05;101642.42;1722329;83;20304;-75
2021/04/08 08:39:45;;;;;;;;;;;;;;;8.83;45.67;101637.95;1722710;82;20328;-77
2021/04/08 08:42:18;;;;;;;;;;;;;;;8.96;46.46;101634.77;1721931;82;22116;-79
2021/04/08 08:44:47;;;;;;;;;;;;;;;9.10;46.01;101634.59;1721640;82;20548;-77
2021/04/08 08:47:22;;;;;;;;;;;;;;;9.06;46.02;101627.89;1702005;82;20558;-81
2021/04/08 08:49:53;;;;;;;;;;;;;;;9.15;46.75;101624.44;1722240;82;20249;-77
2021/04/08 08:52:27;;;;;;;;;;;;;;;9.31;45.85;101633.66;1722086;82;20281;-84
2021/04/08 08:55:01;;;;;;;;;;;;;;;9.30;45.76;101633.25;1722175;82;21402;-82
2021/04/08 08:57:27;;;;;;;;;;;;;;;9.34;45.43;101631.77;1721703;82;20285;-76
2021/04/08 08:59:56;;;;;;;;;;;;;;;9.36;44.88;101635.11;1722320;82;20189;-74
2021/04/08 09:02:23;;;;;;;;;;;;;;;9.46;44.93;101634.23;1721686;83;20217;-75
2021/04/08 09:05:09;;;;;;;;;;;;;;;9.63;45.04;101637.36;1721750;80;20237;-78
2021/04/08 09:07:53;;;;;;;;;;;;;;;9.79;45.71;101633.98;1640260;86;21362;-80
2021/04/08 09:10:33;;;;;;;;;;;;;;;9.97;43.50;101636.98;1815823;79;20276;-79
2021/04/08 09:13:05;;;;;;;;;;;;;;;9.93;42.42;101643.67;1786084;79;20157;-76
2021/04/08 09:15:35;;;;;;;;;;;;;;;9.95;41.00;101641.41;1785818;79;21197;-78
2021/04/08 09:18:07;;;;;;;;;;;;;;;9.90;39.54;101642.07;1786524;80;20643;-79
2021/04/08 09:20:38;;;;;;;;;;;;;;;9.83;39.74;101641.13;1786419;80;20818;-79
2021/04/08 09:23:12;;;;;;;;;;;;;;;9.93;40.62;101639.33;1787170;79;20550;-77
2021/04/08 09:25:50;;;;;;;;;;;;;;;10.17;42.31;101636.52;1785582;80;20185;-76
2021/04/08 09:28:19;;;;;;;;;;;;;;;10.39;39.73;101644.92;1784708;80;21142;-76
2021/04/08 09:31:06;;;;;;;;;;;;;;;10.27;39.43;101646.38;1784688;80;20202;-75
2021/04/08 09:33:48;;;;;;;;;;;;;;;10.20;38.28;101636.36;1784012;79;20150;-77
2021/04/08 09:36:27;;;;;;;;;;;;;;;10.09;39.61;101636.84;1784914;80;20276;-77
2021/04/08 09:39:01;;;;;;;;;;;;;;;10.21;40.60;101640.16;1785053;80;20701;-73
2021/04/08 09:41:43;;;;;;;;;;;;;;;10.34;38.68;101629.56;1784919;80;21188;-79
2021/04/08 09:44:12;;;;;;;;;;;;;;;10.46;39.57;101625.09;1784297;80;20309;-74
2021/04/08 09:46:46;;;;;;;;;;;;;;;10.61;38.01;101637.28;1784857;80;20245;-79
2021/04/08 09:49:13;;;;;;;;;;;;;;;10.52;37.75;101642.94;1784741;80;20307;-80
2021/04/08 09:51:45;;;;;;;;;;;;;;;10.52;36.49;101633.02;1784490;80;20261;-76
2021/04/08 09:54:15;;;;;;;;;;;;;;;10.75;37.25;101636.59;1784621;79;22192;-79
2021/04/08 09:56:55;;;;;;;;;;;;;;;11.08;36.19;101640.02;1785633;80;20576;-82
2021/04/08 09:59:24;;;;;;;;;;;;;;;11.64;34.12;101630.95;1785026;80;20303;-77
2021/04/08 10:01:54;;;;;;;;;;;;;;;12.48;32.43;101637.42;1785493;80;20317;-76
2021/04/08 10:04:25;;;;;;;;;;;;;;;13.20;33.40;101631.77;1785010;80;20229;-77
2021/04/08 10:07:04;;;;;;;;;;;;;;;13.55;30.93;101633.95;1785346;80;21200;-78
2021/04/08 10:09:35;;;;;;;;;;;;;;;13.91;31.53;101630.28;1782600;79;20177;-80
2021/04/08 10:12:07;;;;;;;;;;;;;;;14.59;31.21;101632.31;1779629;80;20332;-77
2021/04/08 10:14:39;;;;;;;;;;;;;;;15.08;29.24;101638.12;1780383;80;20503;-79
2021/04/08 10:17:11;;;;;;;;;;;;;;;15.20;29.29;101639.41;1780034;80;20300;-77
2021/04/08 10:19:41;;;;;;;;;;;;;;;15.69;27.27;101640.73;1779310;79;21199;-78
2021/04/08 10:22:10;;;;;;;;;;;;;;;15.81;25.84;101644.24;1779695;79;20174;-81
2021/04/08 10:24:44;;;;;;;;;;;;;;;15.75;26.30;101647.30;1780183;80;20269;-82
2021/04/08 10:27:14;;;;;;;;;;;;;;;16.00;25.10;101639.81;1779175;79;20328;-73
2021/04/08 10:29:44;;;;;;;;;;;;;;;16.71;23.98;101633.16;1779290;79;20289;-78
2021/04/08 10:32:14;;;;;;;;;;;;;;;16.64;23.00;101636.73;1779051;80;22231;-82
2021/04/08 10:34:43;;;;;;;;;;;;;;;16.50;23.82;101634.27;1778562;79;20360;-79
2021/04/08 10:37:11;;;;;;;;;;;;;;;16.23;23.96;101635.03;1778479;80;20320;-78
2021/04/08 10:39:39;;;;;;;;;;;;;;;16.61;24.55;101646.13;1778951;80;20341;-76
2021/04/08 10:42:10;;;;;;;;;;;;;;;17.47;24.32;101634.59;1778338;80;20323;-75
2021/04/08 10:44:42;;;;;;;;;;;;;;;17.70;22.86;101634.09;1778658;80;21190;-80
2021/04/08 10:47:20;;;;;;;;;;;;;;;17.79;23.48;101631.56;1778228;80;20385;-80
2021/04/08 10:49:55;;;;;;;;;;;;;;;18.20;22.66;101633.91;1778928;79;20218;-76
2021/04/08 10:52:32;;;;;;;;;;;;;;;17.80;22.26;101627.16;1779363;80;20233;-78
2021/04/08 10:55:09;;;;;;;;;;;;;;;17.16;23.65;101635.34;1779600;80;20269;-80
2021/04/08 10:57:36;;;;;;;;;;;;;;;17.46;23.86;101629.81;1779447;80;20655;-78
2021/04/08 11:00:08;;;;;;;;;;;;;;;18.24;23.10;101626.14;1760226;80;20337;-74
2021/04/08 11:02:41;;;;;;;;;;;;;;;18.10;22.62;101629.05;1786167;79;20288;-78
2021/04/08 11:05:24;;;;;;;;;;;;;;;17.63;22.49;101636.38;1808107;79;20573;-77
2021/04/08 11:07:57;;;;;;;;;;;;;;;17.69;22.31;101628.48;1808702;79;20339;-80
2021/04/08 11:10:30;;;;;;;;;;;;;;;18.06;23.00;101624.53;1802723;79;22237;-80
2021/04/08 11:13:00;;;;;;;;;;;;;;;18.64;21.99;101620.55;1805607;79;20776;-79
2021/04/08 11:15:30;;;;;;;;;;;;;;;18.82;21.71;101621.63;1805421;79;20585;-76
2021/04/08 11:18:07;;;;;;;;;;;;;;;18.00;21.42;101621.60;1790157;79;20343;-80
2021/04/08 11:20:40;;;;;;;;;;;;;;;16.64;22.57;101622.31;1744139;80;20363;-77
2021/04/08 11:23:08;;;;;;;;;;;;;;;16.36;23.38;101626.16;1745007;80;21245;-77
2021/04/08 11:25:38;;;;;;;;;;;;;;;16.28;24.17;101624.56;1745144;80;20576;-81
2021/04/08 11:28:07;;;;;;;;;;;;;;;16.69;23.52;101622.78;1744960;81;20564;-76
2021/04/08 11:30:38;;;;;;;;;;;;;;;16.83;22.93;101623.05;1745110;81;20504;-72
2021/04/08 11:33:14;;;;;;;;;;;;;;;15.89;23.81;101632.73;1745038;81;20223;-75
2021/04/08 11:35:43;;;;;;;;;;;;;;;14.79;24.85;101629.20;1745240;82;22077;-75
2021/04/08 11:38:19;;;;;;;;;;;;;;;13.83;24.89;101636.48;1745664;81;20199;-74
2021/04/08 11:40:56;;;;;;;;;;;;;;;13.19;25.96;101635.77;1745463;82;20132;-80
2021/04/08 11:43:29;;;;;;;;;;;;;;;14.13;26.32;101629.30;1743929;82;20132;-76
2021/04/08 11:45:59;;;;;;;;;;;;;;;14.20;25.11;101628.39;1746608;81;20129;-76
2021/04/08 11:48:40;;;;;;;;;;;;;;;13.74;24.39;101631.39;1746675;81;21244;-78
2021/04/08 11:51:13;;;;;;;;;;;;;;;13.49;25.79;101623.91;1746146;82;20227;-76
2021/04/08 11:53:42;;;;;;;;;;;;;;;13.36;26.30;101622.53;1746509;81;20228;-80
2021/04/08 11:56:48;;;;;;;;;;;;;;;13.40;24.84;101625.80;1746532;81;20246;-75
2021/04/08 11:59:17;;;;;;;;;;;;;;;14.22;23.76;101626.53;1746696;82;20169;-78
2021/04/08 12:01:46;;;;;;;;;;;;;;;15.17;23.29;101621.78;1745595;81;22125;-75
2021/04/08 12:04:23;;;;;;;;;;;;;;;15.23;22.04;101624.81;1746089;82;20125;-78
2021/04/08 12:06:53;;;;;;;;;;;;;;;15.31;23.06;101624.28;1746296;82;20140;-76
2021/04/08 12:09:40;;;;;;;;;;;;;;;15.48;23.13;101618.70;1746146;81;20233;-78
2021/04/08 12:12:08;;;;;;;;;;;;;;;15.91;23.59;101613.84;1744088;81;20156;-77
2021/04/08 12:15:04;;;;;;;;;;;;;;;16.58;20.27;101614.08;1745953;82;22132;-77
2021/04/08 12:17:32;;;;;;;;;;;;;;;16.47;20.56;101616.63;1746496;82;20148;-77
2021/04/08 12:20:18;;;;;;;;;;;;;;;16.71;21.37;101620.90;1746567;81;20227;-76
2021/04/08 12:22:45;;;;;;;;;;;;;;;17.13;20.23;101631.17;1746242;81;20713;-76
2021/04/08 12:25:17;;;;;;;;;;;;;;;17.50;20.79;101622.53;1746837;81;20128;-74
2021/04/08 12:27:46;;;;;;;;;;;;;;;17.68;19.89;101623.70;1746610;81;22106;-80
2021/04/08 12:30:16;;;;;;;;;;;;;;;17.25;19.93;101617.56;1747313;81;20140;-81
2021/04/08 12:32:44;;;;;;;;;;;;;;;16.16;21.01;101629.88;1746505;82;20294;-81
2021/04/08 12:35:13;;;;;;;;;;;;;;;15.31;21.85;101638.66;1746260;81;20148;-78
2021/04/08 12:37:41;;;;;;;;;;;;;;;15.35;22.18;101633.56;1746471;81;20299;-74
2021/04/08 12:40:10;;;;;;;;;;;;;;;15.18;21.79;101628.23;1746317;82;21365;-73
2021/04/08 12:42:38;;;;;;;;;;;;;;;14.58;22.63;101621.98;1746575;82;20211;-79
2021/04/08 12:45:10;;;;;;;;;;;;;;;14.08;23.67;101627.43;1747078;81;20203;-81
2021/04/08 12:47:38;;;;;;;;;;;;;;;14.21;23.92;101623.55;1738845;82;20117;-78
2021/04/08 12:50:07;;;;;;;;;;;;;;;14.62;23.36;101625.57;1746710;81;20243;-78
2021/04/08 12:52:35;;;;;;;;;;;;;;;14.41;23.54;101621.80;1746880;82;21357;-73
2021/04/08 12:55:07;;;;;;;;;;;;;;;14.01;24.22;101624.00;1746643;81;20884;-72
2021/04/08 12:57:35;;;;;;;;;;;;;;;13.60;24.96;101629.27;1746829;80;20140;-80
2021/04/08 13:00:05;;;;;;;;;;;;;;;13.25;24.44;101631.47;1745881;81;20687;-78
2021/04/08 13:02:33;;;;;;;;;;;;;;;12.83;25.36;101630.97;1745535;81;20195;-77
2021/04/08 13:05:01;;;;;;;;;;;;;;;12.61;25.66;101634.48;1745035;81;21196;-74